Time;durP1;ratioP1;P1;durP2;ratioP2;P2;SDS_P1;SDS_P2;PMS_P1;PMS_P2;Temp;Humidity;BMP_temperature;BMP_pressure;BME280_temperature;BME280_humidity;BME280_pressure;Samples;Min_cycle;Max_cycle;Signal;HPM_P1;HPM_P2
2023/12/13 00:01:26;;;;;;;29.50;15.57;;;;;;;;;;5069298;28;20070;-70
2023/12/13 00:03:53;;;;;;;28.70;15.02;;;;;;;;;;5069501;28;20176;-70
2023/12/13 00:06:20;;;;;;;29.52;16.55;;;;;;;;;;5069496;28;20052;-70
2023/12/13 00:08:46;;;;;;;30.48;16.80;;;;;;;;;;5052368;28;20076;-70
2023/12/13 00:11:12;;;;;;;35.40;18.38;;;;;;;;;;5070802;28;20121;-70
2023/12/13 00:13:38;;;;;;;35.42;18.90;;;;;;;;;;5069354;28;20039;-70
2023/12/13 00:16:04;;;;;;;40.58;19.98;;;;;;;;;;5069490;28;20084;-70
2023/12/13 00:18:31;;;;;;;35.90;19.00;;;;;;;;;;5075587;28;20486;-70
2023/12/13 00:20:57;;;;;;;39.60;19.92;;;;;;;;;;5089610;28;20161;-70
2023/12/13 00:23:23;;;;;;;37.70;20.38;;;;;;;;;;5089414;28;20051;-70
2023/12/13 00:25:49;;;;;;;42.85;20.85;;;;;;;;;;5082846;28;20045;-70
2023/12/13 00:28:15;;;;;;;42.75;21.05;;;;;;;;;;5070316;28;20045;-70
2023/12/13 00:30:41;;;;;;;44.03;21.00;;;;;;;;;;5070456;28;20036;-70
2023/12/13 00:33:07;;;;;;;40.03;20.02;;;;;;;;;;5070708;28;20056;-70
2023/12/13 00:35:33;;;;;;;41.08;20.38;;;;;;;;;;5069442;28;20132;-70
2023/12/13 00:37:59;;;;;;;41.35;20.38;;;;;;;;;;5069996;28;20055;-70
2023/12/13 00:40:25;;;;;;;42.95;20.63;;;;;;;;;;5069097;28;20044;-70
2023/12/13 00:42:53;;;;;;;40.10;20.00;;;;;;;;;;5069328;28;20045;-70
2023/12/13 00:45:19;;;;;;;38.85;20.52;;;;;;;;;;5068615;28;20083;-70
2023/12/13 00:47:46;;;;;;;38.58;19.58;;;;;;;;;;5054934;28;20054;-70
2023/12/13 00:50:12;;;;;;;43.40;20.92;;;;;;;;;;5074425;28;20075;-70
2023/12/13 00:52:38;;;;;;;40.03;20.77;;;;;;;;;;5072398;28;20376;-70
2023/12/13 00:55:04;;;;;;;41.22;21.02;;;;;;;;;;5072779;28;20403;-70
2023/12/13 00:57:31;;;;;;;47.53;21.75;;;;;;;;;;5072535;28;20099;-70
2023/12/13 00:59:57;;;;;;;37.63;19.23;;;;;;;;;;5072563;28;20161;-70
2023/12/13 01:02:23;;;;;;;131.00;27.25;;;;;;;;;;5072655;28;20045;-70
2023/12/13 01:04:49;;;;;;;45.05;21.65;;;;;;;;;;5072458;28;20066;-70
2023/12/13 01:07:15;;;;;;;50.28;21.55;;;;;;;;;;5073585;28;20656;-70
2023/12/13 01:09:41;;;;;;;40.40;20.90;;;;;;;;;;5072659;28;20045;-70
2023/12/13 01:12:07;;;;;;;43.42;22.63;;;;;;;;;;5072754;28;20036;-70
2023/12/13 01:14:33;;;;;;;48.33;23.63;;;;;;;;;;5071957;28;20047;-70
2023/12/13 01:17:00;;;;;;;42.90;22.80;;;;;;;;;;5072409;28;20040;-70
2023/12/13 01:19:26;;;;;;;49.17;22.95;;;;;;;;;;5086326;28;20040;-70
2023/12/13 01:21:52;;;;;;;53.25;24.10;;;;;;;;;;5093600;28;20367;-70
2023/12/13 01:24:19;;;;;;;49.97;24.80;;;;;;;;;;5094090;28;20062;-70
2023/12/13 01:26:45;;;;;;;45.83;22.85;;;;;;;;;;5076343;28;20040;-70
2023/12/13 01:29:11;;;;;;;45.47;22.75;;;;;;;;;;5071766;28;20053;-70
2023/12/13 01:31:37;;;;;;;47.13;21.98;;;;;;;;;;5073821;28;20041;-70
2023/12/13 01:34:03;;;;;;;41.83;20.77;;;;;;;;;;5072184;28;20498;-70
2023/12/13 01:36:29;;;;;;;45.58;21.92;;;;;;;;;;5055063;28;20047;-70
2023/12/13 01:38:55;;;;;;;46.03;21.08;;;;;;;;;;5071910;28;20044;-70
2023/12/13 01:41:21;;;;;;;42.30;19.90;;;;;;;;;;5073445;28;20519;-70
2023/12/13 01:43:48;;;;;;;38.45;20.40;;;;;;;;;;5071481;28;20062;-70
2023/12/13 01:46:16;;;;;;;38.83;20.42;;;;;;;;;;5073372;28;20427;-70
2023/12/13 01:48:42;;;;;;;38.45;20.15;;;;;;;;;;5071653;28;20048;-70
2023/12/13 01:51:09;;;;;;;38.67;19.92;;;;;;;;;;5071634;28;20073;-70
2023/12/13 01:53:35;;;;;;;42.08;19.63;;;;;;;;;;5073067;28;20509;-70
2023/12/13 01:56:03;;;;;;;32.97;17.67;;;;;;;;;;5071958;28;20037;-70
2023/12/13 01:58:29;;;;;;;36.33;17.85;;;;;;;;;;5072126;28;20586;-70
2023/12/13 02:00:56;;;;;;;31.45;16.52;;;;;;;;;;5073073;28;20045;-70
2023/12/13 02:03:22;;;;;;;33.50;16.50;;;;;;;;;;5071642;28;20049;-70
2023/12/13 02:05:51;;;;;;;31.13;15.23;;;;;;;;;;5072639;28;20043;-70
2023/12/13 02:08:18;;;;;;;30.33;14.05;;;;;;;;;;5071415;28;20044;-70
2023/12/13 02:10:45;;;;;;;30.45;15.38;;;;;;;;;;5071305;28;20059;-70
2023/12/13 02:13:12;;;;;;;24.30;13.13;;;;;;;;;;5070953;28;20051;-70
2023/12/13 02:15:38;;;;;;;23.00;13.23;;;;;;;;;;5071322;28;20036;-70
2023/12/13 02:18:06;;;;;;;28.27;13.40;;;;;;;;;;5074069;28;20066;-70
2023/12/13 02:20:32;;;;;;;23.98;12.38;;;;;;;;;;5091821;28;20466;-70
2023/12/13 02:22:59;;;;;;;29.15;13.18;;;;;;;;;;5092271;28;20424;-70
2023/12/13 02:25:47;;;;;;;23.33;12.68;;;;;;;;;;5086893;28;20051;-70
2023/12/13 02:28:13;;;;;;;21.17;11.68;;;;;;;;;;5072646;28;20490;-70
2023/12/13 02:30:43;;;;;;;22.85;12.13;;;;;;;;;;5071884;28;20208;-70
2023/12/13 02:33:09;;;;;;;24.02;12.32;;;;;;;;;;5071326;28;20257;-70
2023/12/13 02:35:35;;;;;;;24.38;12.30;;;;;;;;;;5071042;28;20072;-70
2023/12/13 02:38:01;;;;;;;23.55;12.38;;;;;;;;;;5071325;28;20055;-70
2023/12/13 02:40:28;;;;;;;22.08;12.40;;;;;;;;;;5071533;28;20044;-70
2023/12/13 02:42:55;;;;;;;21.80;12.10;;;;;;;;;;5069766;28;20052;-70
2023/12/13 02:45:21;;;;;;;25.15;12.85;;;;;;;;;;5069956;28;20458;-70
2023/12/13 02:47:49;;;;;;;23.60;13.18;;;;;;;;;;5070905;28;20066;-70
2023/12/13 02:50:15;;;;;;;23.98;13.32;;;;;;;;;;5069091;28;20337;-70
2023/12/13 02:52:42;;;;;;;26.40;12.18;;;;;;;;;;5071206;28;20513;-70
2023/12/13 02:55:12;;;;;;;26.35;12.60;;;;;;;;;;5069834;28;20068;-70
2023/12/13 02:57:38;;;;;;;25.35;13.68;;;;;;;;;;5070249;28;20057;-70
2023/12/13 03:00:06;;;;;;;22.63;13.10;;;;;;;;;;5069468;28;20102;-70
2023/12/13 03:02:32;;;;;;;25.25;13.18;;;;;;;;;;5070848;28;20076;-70
2023/12/13 03:05:00;;;;;;;24.00;13.27;;;;;;;;;;5070209;28;20048;-70
2023/12/13 03:07:26;;;;;;;26.17;13.90;;;;;;;;;;5069236;28;20044;-70
2023/12/13 03:09:52;;;;;;;24.30;12.75;;;;;;;;;;5069947;28;20055;-70
2023/12/13 03:12:18;;;;;;;24.77;13.93;;;;;;;;;;5068642;28;20072;-70
2023/12/13 03:14:45;;;;;;;20.95;12.32;;;;;;;;;;5068984;28;20131;-70
2023/12/13 03:17:12;;;;;;;25.10;12.43;;;;;;;;;;5069078;28;20094;-70
2023/12/13 03:19:38;;;;;;;23.30;12.75;;;;;;;;;;5084237;28;20669;-70
2023/12/13 03:22:04;;;;;;;26.30;13.85;;;;;;;;;;5090844;28;20046;-70
2023/12/13 03:24:30;;;;;;;30.35;13.07;;;;;;;;;;5090700;28;20040;-70
2023/12/13 03:26:56;;;;;;;24.23;13.43;;;;;;;;;;5070831;28;20041;-70
2023/12/13 03:29:22;;;;;;;20.35;12.32;;;;;;;;;;5070315;28;20060;-70
2023/12/13 03:31:48;;;;;;;22.13;12.00;;;;;;;;;;5068710;28;20037;-70
2023/12/13 03:34:14;;;;;;;25.70;12.80;;;;;;;;;;5068576;28;20040;-70
2023/12/13 03:36:41;;;;;;;28.38;13.80;;;;;;;;;;5068567;28;20044;-70
2023/12/13 03:39:10;;;;;;;20.02;12.35;;;;;;;;;;5068456;28;20426;-70
2023/12/13 03:41:36;;;;;;;24.77;12.18;;;;;;;;;;5068262;28;20071;-70
2023/12/13 03:44:02;;;;;;;22.58;12.98;;;;;;;;;;5069965;28;20587;-70
2023/12/13 03:46:28;;;;;;;25.73;12.95;;;;;;;;;;5069941;28;20479;-70
2023/12/13 03:48:54;;;;;;;23.95;13.25;;;;;;;;;;5067864;28;20094;-70
2023/12/13 03:51:20;;;;;;;24.30;12.57;;;;;;;;;;5068621;28;20109;-70
2023/12/13 03:53:46;;;;;;;24.38;12.70;;;;;;;;;;5069631;28;20036;-70
2023/12/13 03:56:12;;;;;;;21.73;12.52;;;;;;;;;;5069531;28;20090;-70
2023/12/13 03:58:39;;;;;;;26.02;13.40;;;;;;;;;;5069938;28;20048;-70
2023/12/13 04:01:05;;;;;;;23.77;13.05;;;;;;;;;;5068123;28;20454;-70
2023/12/13 04:03:34;;;;;;;22.67;13.43;;;;;;;;;;5068337;28;20127;-70
2023/12/13 04:06:00;;;;;;;28.77;14.13;;;;;;;;;;5069412;28;20048;-70
2023/12/13 04:08:26;;;;;;;29.25;15.10;;;;;;;;;;5051356;28;20127;-70
2023/12/13 04:10:52;;;;;;;23.20;14.30;;;;;;;;;;5067886;28;20124;-70
2023/12/13 04:13:18;;;;;;;27.00;14.88;;;;;;;;;;5069805;28;20475;-70
2023/12/13 04:15:44;;;;;;;28.60;15.57;;;;;;;;;;5069731;28;20043;-70
2023/12/13 04:18:10;;;;;;;26.38;16.08;;;;;;;;;;5071228;28;20482;-70
2023/12/13 04:20:36;;;;;;;30.25;16.33;;;;;;;;;;5088300;28;20051;-70
2023/12/13 04:23:02;;;;;;;31.63;16.20;;;;;;;;;;5092125;28;20040;-70
2023/12/13 04:25:28;;;;;;;29.52;17.38;;;;;;;;;;5087309;28;20051;-70
2023/12/13 04:27:54;;;;;;;32.15;16.95;;;;;;;;;;5073345;28;20041;-70
2023/12/13 04:30:20;;;;;;;33.97;17.52;;;;;;;;;;5072320;28;20063;-70
2023/12/13 04:32:46;;;;;;;33.95;17.90;;;;;;;;;;5073754;28;20406;-70
2023/12/13 04:35:12;;;;;;;32.35;18.33;;;;;;;;;;5073545;28;20044;-70
2023/12/13 04:37:38;;;;;;;32.10;18.02;;;;;;;;;;5073464;28;20040;-70
2023/12/13 04:40:06;;;;;;;31.52;17.85;;;;;;;;;;5071980;28;20049;-70
2023/12/13 04:42:32;;;;;;;31.52;17.88;;;;;;;;;;5073037;28;20052;-70
2023/12/13 04:44:58;;;;;;;35.38;19.50;;;;;;;;;;5073245;28;20170;-70
2023/12/13 04:47:24;;;;;;;34.38;18.13;;;;;;;;;;5072949;28;20059;-70
2023/12/13 04:49:50;;;;;;;28.55;17.10;;;;;;;;;;5071470;28;20128;-70
2023/12/13 04:52:16;;;;;;;34.33;18.23;;;;;;;;;;5071474;28;20115;-70
2023/12/13 04:54:42;;;;;;;33.72;18.60;;;;;;;;;;5071787;28;20051;-70
2023/12/13 04:57:08;;;;;;;32.95;18.73;;;;;;;;;;5071126;28;20053;-70
2023/12/13 04:59:34;;;;;;;35.47;19.35;;;;;;;;;;5071311;28;20119;-70
2023/12/13 05:02:00;;;;;;;37.33;19.40;;;;;;;;;;5071504;28;20048;-70
2023/12/13 05:04:26;;;;;;;32.67;18.70;;;;;;;;;;5071110;28;20043;-70
2023/12/13 05:06:52;;;;;;;34.47;18.50;;;;;;;;;;5072685;28;20067;-70
2023/12/13 05:09:18;;;;;;;33.65;19.00;;;;;;;;;;5073075;28;20041;-70
2023/12/13 05:11:44;;;;;;;32.22;19.05;;;;;;;;;;5072367;28;20086;-70
2023/12/13 05:14:10;;;;;;;33.50;18.33;;;;;;;;;;5071647;28;20478;-70
2023/12/13 05:16:36;;;;;;;31.23;19.50;;;;;;;;;;5071316;28;20224;-70
2023/12/13 05:19:02;;;;;;;35.30;19.83;;;;;;;;;;5082837;28;20059;-70
2023/12/13 05:21:28;;;;;;;34.65;18.90;;;;;;;;;;5091753;28;20398;-70
2023/12/13 05:23:55;;;;;;;33.60;19.13;;;;;;;;;;5091564;28;20036;-70
2023/12/13 05:26:21;;;;;;;40.42;20.23;;;;;;;;;;5079318;28;20083;-70
2023/12/13 05:28:47;;;;;;;31.38;18.73;;;;;;;;;;5070906;28;20037;-70
2023/12/13 05:31:19;;;;;;;38.85;20.20;;;;;;;;;;5071985;28;20043;-70
2023/12/13 05:33:46;;;;;;;35.67;19.38;;;;;;;;;;5071903;28;20123;-70
2023/12/13 05:36:12;;;;;;;39.03;20.17;;;;;;;;;;5072672;28;20045;-70
2023/12/13 05:38:38;;;;;;;34.25;18.98;;;;;;;;;;5072437;28;20051;-70
2023/12/13 05:41:05;;;;;;;35.80;19.50;;;;;;;;;;5071860;28;20050;-70
2023/12/13 05:43:31;;;;;;;37.83;20.33;;;;;;;;;;5073242;28;20048;-70
2023/12/13 05:45:57;;;;;;;32.97;19.98;;;;;;;;;;5073370;28;20043;-70
2023/12/13 05:48:23;;;;;;;36.35;20.00;;;;;;;;;;5072790;28;20040;-70
2023/12/13 05:50:49;;;;;;;36.83;20.60;;;;;;;;;;5073170;28;20032;-70
2023/12/13 05:53:15;;;;;;;40.25;20.40;;;;;;;;;;5054818;28;20049;-70
2023/12/13 05:55:42;;;;;;;36.72;20.73;;;;;;;;;;5072693;28;20040;-70
2023/12/13 05:58:09;;;;;;;41.22;21.17;;;;;;;;;;5071190;28;20106;-70
2023/12/13 06:00:35;;;;;;;35.83;19.67;;;;;;;;;;5071702;28;20157;-70
2023/12/13 06:03:01;;;;;;;35.50;20.60;;;;;;;;;;5071147;28;20174;-70
2023/12/13 06:05:27;;;;;;;40.67;21.40;;;;;;;;;;5071339;28;20402;-70
2023/12/13 06:07:53;;;;;;;40.95;21.67;;;;;;;;;;5071244;28;20048;-70
2023/12/13 06:10:19;;;;;;;33.90;20.52;;;;;;;;;;5071213;28;20051;-70
2023/12/13 06:12:45;;;;;;;43.10;21.73;;;;;;;;;;5071626;28;20123;-70
2023/12/13 06:15:11;;;;;;;36.00;20.48;;;;;;;;;;5071491;28;20391;-70
2023/12/13 06:17:37;;;;;;;35.45;20.38;;;;;;;;;;5072828;28;20463;-70
2023/12/13 06:20:04;;;;;;;35.25;20.92;;;;;;;;;;5091703;28;20119;-70
2023/12/13 06:22:30;;;;;;;32.80;19.73;;;;;;;;;;5091935;28;20493;-70
2023/12/13 06:24:56;;;;;;;34.47;20.65;;;;;;;;;;5090535;28;20098;-70
2023/12/13 06:27:22;;;;;;;36.67;20.45;;;;;;;;;;5072555;28;20072;-70
2023/12/13 06:29:48;;;;;;;37.28;20.23;;;;;;;;;;5071243;28;20386;-70
2023/12/13 06:32:14;;;;;;;36.45;20.40;;;;;;;;;;5071531;28;20041;-70
2023/12/13 06:34:40;;;;;;;32.60;19.75;;;;;;;;;;5071190;28;20033;-70
2023/12/13 06:37:06;;;;;;;37.83;19.98;;;;;;;;;;5071391;28;20040;-70
2023/12/13 06:39:32;;;;;;;32.22;19.05;;;;;;;;;;5070501;28;20500;-70
2023/12/13 06:41:58;;;;;;;37.03;19.90;;;;;;;;;;5072634;28;20040;-70
2023/12/13 06:44:24;;;;;;;41.45;21.50;;;;;;;;;;5070342;28;20052;-70
2023/12/13 06:46:50;;;;;;;33.47;20.50;;;;;;;;;;5070731;28;20044;-70
2023/12/13 06:49:17;;;;;;;40.13;20.35;;;;;;;;;;5072084;28;20044;-70
2023/12/13 06:51:44;;;;;;;39.45;20.92;;;;;;;;;;5070979;28;20592;-70
2023/12/13 06:54:10;;;;;;;38.22;19.55;;;;;;;;;;5070683;28;20041;-70
2023/12/13 06:56:36;;;;;;;34.40;19.40;;;;;;;;;;5070403;28;20036;-70
2023/12/13 06:59:02;;;;;;;35.92;19.75;;;;;;;;;;5053953;28;20075;-70
2023/12/13 07:01:28;;;;;;;36.83;20.73;;;;;;;;;;5071639;28;20036;-70
2023/12/13 07:03:54;;;;;;;36.35;19.88;;;;;;;;;;5054262;28;20452;-70
2023/12/13 07:06:20;;;;;;;39.17;20.48;;;;;;;;;;5071983;28;20052;-70
2023/12/13 07:08:47;;;;;;;38.13;21.55;;;;;;;;;;5069878;28;20067;-70
2023/12/13 07:11:13;;;;;;;37.88;21.63;;;;;;;;;;5071481;28;20040;-70
2023/12/13 07:13:39;;;;;;;32.58;20.48;;;;;;;;;;5071855;28;20040;-70
2023/12/13 07:16:05;;;;;;;37.45;20.15;;;;;;;;;;5069812;28;20044;-70
2023/12/13 07:18:31;;;;;;;36.60;19.75;;;;;;;;;;5076424;28;20424;-70
2023/12/13 07:20:57;;;;;;;36.25;19.60;;;;;;;;;;5090523;28;20112;-70
2023/12/13 07:23:25;;;;;;;40.03;20.55;;;;;;;;;;5090042;28;20036;-70
2023/12/13 07:25:51;;;;;;;35.67;19.80;;;;;;;;;;5082228;28;20051;-70
2023/12/13 07:28:17;;;;;;;35.85;20.38;;;;;;;;;;5069761;28;20573;-71
2023/12/13 07:30:44;;;;;;;33.53;19.67;;;;;;;;;;5086485;28;20101;-70
2023/12/13 07:33:11;;;;;;;38.65;19.92;;;;;;;;;;5090034;28;20066;-70
2023/12/13 07:35:37;;;;;;;40.70;19.80;;;;;;;;;;5080068;28;20052;-67
2023/12/13 07:38:04;;;;;;;35.75;19.67;;;;;;;;;;5075793;28;20109;-67
2023/12/13 07:40:33;;;;;;;39.88;21.25;;;;;;;;;;5091270;28;20047;-67
2023/12/13 07:42:59;;;;;;;35.67;20.10;;;;;;;;;;5085388;28;20122;-67
2023/12/13 07:45:26;;;;;;;43.00;21.50;;;;;;;;;;5071775;28;20035;-67
2023/12/13 07:47:53;;;;;;;37.55;20.38;;;;;;;;;;5091442;28;20044;-67
2023/12/13 07:50:20;;;;;;;42.83;21.13;;;;;;;;;;5073898;28;20455;-67
2023/12/13 07:52:47;;;;;;;31.92;19.63;;;;;;;;;;5090833;28;20471;-67
2023/12/13 07:55:19;;;;;;;45.03;20.70;;;;;;;;;;5091205;28;20455;-67
2023/12/13 07:57:47;;;;;;;36.67;20.42;;;;;;;;;;5090965;28;20066;-67
2023/12/13 08:00:14;;;;;;;38.95;20.55;;;;;;;;;;5090973;28;20082;-67
2023/12/13 08:02:41;;;;;;;35.25;19.00;;;;;;;;;;5090403;28;20052;-68
2023/12/13 08:05:07;;;;;;;38.92;20.55;;;;;;;;;;5084348;28;20039;-67
2023/12/13 08:07:35;;;;;;;38.97;20.63;;;;;;;;;;5082706;28;20040;-67
2023/12/13 08:10:03;;;;;;;48.25;21.95;;;;;;;;;;5070492;28;20070;-67
2023/12/13 08:12:29;;;;;;;39.83;21.17;;;;;;;;;;5089686;28;20040;-66
2023/12/13 08:14:56;;;;;;;39.10;21.15;;;;;;;;;;5083339;28;20590;-68
2023/12/13 08:17:23;;;;;;;37.72;19.92;;;;;;;;;;5081422;28;20118;-68
2023/12/13 08:19:49;;;;;;;37.10;20.50;;;;;;;;;;5084999;28;20444;-66
2023/12/13 08:22:16;;;;;;;36.80;19.80;;;;;;;;;;5087795;28;20036;-68
2023/12/13 08:24:47;;;;;;;39.05;20.25;;;;;;;;;;5082184;28;20040;-66
2023/12/13 08:27:14;;;;;;;38.85;19.77;;;;;;;;;;5086442;28;20467;-66
2023/12/13 08:29:40;;;;;;;37.45;20.92;;;;;;;;;;5085462;28;20032;-67
2023/12/13 08:32:07;;;;;;;38.75;19.65;;;;;;;;;;5075155;28;20033;-67
2023/12/13 08:34:44;;;;;;;35.53;19.98;;;;;;;;;;5086491;28;20062;-67
2023/12/13 08:37:11;;;;;;;34.30;19.73;;;;;;;;;;5087099;28;20097;-70
2023/12/13 08:39:38;;;;;;;36.45;19.17;;;;;;;;;;5087582;28;20471;-69
2023/12/13 08:42:04;;;;;;;38.63;20.45;;;;;;;;;;5087508;28;20046;-69
2023/12/13 08:44:31;;;;;;;42.78;21.27;;;;;;;;;;5086169;28;20044;-69
2023/12/13 08:46:58;;;;;;;34.03;19.15;;;;;;;;;;5084028;28;20083;-68
2023/12/13 08:49:26;;;;;;;37.22;19.33;;;;;;;;;;5076966;28;21557;-68
2023/12/13 08:51:53;;;;;;;36.42;19.77;;;;;;;;;;5079147;28;20048;-69
2023/12/13 08:54:19;;;;;;;37.08;18.60;;;;;;;;;;5077272;28;20043;-67
2023/12/13 08:56:46;;;;;;;36.08;18.95;;;;;;;;;;5084472;28;20060;-70
2023/12/13 08:59:14;;;;;;;33.20;19.65;;;;;;;;;;5081479;28;20432;-69
2023/12/13 09:01:40;;;;;;;37.47;18.70;;;;;;;;;;5076022;28;20309;-70
2023/12/13 09:04:07;;;;;;;37.40;18.58;;;;;;;;;;5081976;28;20040;-68
2023/12/13 09:06:34;;;;;;;40.58;20.30;;;;;;;;;;5084180;28;20079;-68
2023/12/13 09:09:00;;;;;;;36.53;19.45;;;;;;;;;;5087226;28;20139;-69
2023/12/13 09:11:27;;;;;;;33.97;19.30;;;;;;;;;;5089833;28;20044;-66
2023/12/13 09:13:53;;;;;;;36.65;19.55;;;;;;;;;;5082270;28;20047;-65
2023/12/13 09:16:19;;;;;;;35.78;20.25;;;;;;;;;;5086901;28;20036;-67
2023/12/13 09:18:46;;;;;;;43.10;20.58;;;;;;;;;;5091545;28;20038;-68
2023/12/13 09:21:12;;;;;;;43.25;19.23;;;;;;;;;;5091751;28;20063;-67
2023/12/13 09:23:40;;;;;;;37.03;19.83;;;;;;;;;;5090081;28;20401;-67
2023/12/13 09:26:06;;;;;;;37.97;19.75;;;;;;;;;;5089579;28;20111;-66
2023/12/13 09:28:35;;;;;;;37.95;19.38;;;;;;;;;;5089204;28;20052;-67
2023/12/13 09:31:02;;;;;;;32.05;18.95;;;;;;;;;;5096668;28;20036;-67
2023/12/13 09:33:28;;;;;;;39.15;19.20;;;;;;;;;;5092305;28;20066;-66
2023/12/13 09:35:54;;;;;;;37.17;18.85;;;;;;;;;;5081939;28;20486;-65
2023/12/13 09:38:21;;;;;;;35.97;19.98;;;;;;;;;;5089863;28;20104;-64
2023/12/13 09:40:48;;;;;;;31.73;17.88;;;;;;;;;;5091580;28;20039;-65
2023/12/13 09:43:14;;;;;;;32.28;18.92;;;;;;;;;;5085486;28;20040;-65
2023/12/13 09:45:41;;;;;;;55.78;22.30;;;;;;;;;;5080014;28;20050;-65
2023/12/13 09:48:08;;;;;;;73.00;27.50;;;;;;;;;;5085295;28;20032;-68
2023/12/13 09:50:34;;;;;;;66.88;25.02;;;;;;;;;;5090682;28;20043;-66
2023/12/13 09:53:01;;;;;;;64.53;25.25;;;;;;;;;;5082252;28;20060;-66
2023/12/13 09:55:27;;;;;;;72.20;27.25;;;;;;;;;;5086022;28;20040;-67
2023/12/13 09:57:53;;;;;;;74.55;27.73;;;;;;;;;;5085069;28;20071;-70
2023/12/13 10:00:20;;;;;;;41.97;20.35;;;;;;;;;;5087537;28;20571;-69
2023/12/13 10:02:47;;;;;;;48.28;23.42;;;;;;;;;;5083591;28;20123;-67
2023/12/13 10:05:16;;;;;;;52.40;22.85;;;;;;;;;;5085416;28;20366;-67
2023/12/13 10:07:43;;;;;;;43.08;21.00;;;;;;;;;;5081039;28;20045;-68
2023/12/13 10:10:09;;;;;;;43.00;21.25;;;;;;;;;;5085097;28;20078;-68
2023/12/13 10:12:35;;;;;;;41.30;20.60;;;;;;;;;;5090353;28;20055;-67
2023/12/13 10:15:11;;;;;;;37.67;18.80;;;;;;;;;;5090931;28;20032;-67
2023/12/13 10:17:38;;;;;;;40.78;19.83;;;;;;;;;;5090568;28;20055;-67
2023/12/13 10:20:06;;;;;;;40.83;19.42;;;;;;;;;;5086304;28;20123;-67
2023/12/13 10:22:33;;;;;;;47.20;20.50;;;;;;;;;;5084603;28;20505;-68
2023/12/13 10:24:59;;;;;;;35.60;18.83;;;;;;;;;;5080266;28;20039;-68
2023/12/13 10:27:25;;;;;;;42.88;19.58;;;;;;;;;;5078676;28;20532;-68
2023/12/13 10:29:54;;;;;;;34.35;19.17;;;;;;;;;;5088437;28;20044;-68
2023/12/13 10:32:21;;;;;;;34.05;18.83;;;;;;;;;;5083590;28;20049;-68
2023/12/13 10:34:47;;;;;;;39.25;19.83;;;;;;;;;;5088316;28;20127;-68
2023/12/13 10:37:13;;;;;;;32.50;18.77;;;;;;;;;;5087242;28;20089;-68
2023/12/13 10:39:44;;;;;;;43.10;20.65;;;;;;;;;;5076592;28;20048;-67
2023/12/13 10:42:10;;;;;;;44.25;21.63;;;;;;;;;;5085195;28;20032;-68
2023/12/13 10:44:37;;;;;;;37.15;19.50;;;;;;;;;;5071051;28;20560;-67
2023/12/13 10:47:07;;;;;;;32.90;19.23;;;;;;;;;;5085844;28;20036;-67
2023/12/13 10:49:34;;;;;;;43.35;19.55;;;;;;;;;;5084970;28;20519;-67
2023/12/13 10:52:01;;;;;;;36.17;19.42;;;;;;;;;;5090148;28;20185;-67
2023/12/13 10:54:29;;;;;;;38.72;19.98;;;;;;;;;;5088807;28;20040;-68
2023/12/13 10:56:56;;;;;;;41.10;19.60;;;;;;;;;;5088231;28;20058;-67
2023/12/13 10:59:24;;;;;;;32.88;18.83;;;;;;;;;;5088860;28;20055;-69
2023/12/13 11:01:52;;;;;;;35.80;19.27;;;;;;;;;;5087172;28;20052;-69
2023/12/13 11:04:18;;;;;;;31.00;18.00;;;;;;;;;;5078780;28;20046;-67
2023/12/13 11:06:48;;;;;;;41.35;20.10;;;;;;;;;;5081718;28;20123;-68
2023/12/13 11:09:18;;;;;;;38.15;18.58;;;;;;;;;;5078307;28;20131;-67
2023/12/13 11:11:44;;;;;;;40.05;19.92;;;;;;;;;;5080006;28;20131;-68
2023/12/13 11:14:15;;;;;;;37.80;19.92;;;;;;;;;;5079307;28;20036;-67
2023/12/13 11:16:42;;;;;;;33.55;18.98;;;;;;;;;;5088990;28;20044;-69
2023/12/13 11:19:12;;;;;;;34.30;20.95;;;;;;;;;;5088427;28;20048;-69
2023/12/13 11:21:39;;;;;;;41.05;21.55;;;;;;;;;;5075154;28;20050;-69
2023/12/13 11:24:13;;;;;;;38.85;20.88;;;;;;;;;;5077993;28;20495;-71
2023/12/13 11:26:45;;;;;;;39.05;20.25;;;;;;;;;;5066367;28;20051;-71
2023/12/13 11:29:20;;;;;;;34.50;20.52;;;;;;;;;;5084469;28;20537;-71
2023/12/13 11:31:53;;;;;;;41.83;20.27;;;;;;;;;;5063606;28;20609;-70
2023/12/13 11:34:19;;;;;;;;;;;;;;;;;;5080130;28;20024;-71
2023/12/13 11:36:45;;;;;;;36.97;19.75;;;;;;;;;;5080604;28;19988;-72
2023/12/13 11:39:11;;;;;;;39.08;20.20;;;;;;;;;;5076729;28;20499;-70
2023/12/13 11:41:37;;;;;;;33.00;18.67;;;;;;;;;;5087965;28;20561;-72
2023/12/13 11:44:05;;;;;;;37.55;20.15;;;;;;;;;;5080929;28;20040;-71
2023/12/13 11:46:31;;;;;;;38.53;20.60;;;;;;;;;;5086512;28;20052;-70
2023/12/13 11:48:57;;;;;;;39.95;20.27;;;;;;;;;;5074248;28;20054;-71
2023/12/13 11:51:23;;;;;;;36.55;20.08;;;;;;;;;;5073938;28;20067;-72
2023/12/13 11:53:50;;;;;;;41.58;20.70;;;;;;;;;;5087317;28;20058;-71
2023/12/13 11:56:18;;;;;;;38.33;19.25;;;;;;;;;;5086859;28;20133;-70
2023/12/13 11:58:44;;;;;;;41.20;21.17;;;;;;;;;;5087183;28;20060;-70
2023/12/13 12:01:13;;;;;;;36.50;19.83;;;;;;;;;;5078867;28;20070;-70
2023/12/13 12:03:40;;;;;;;39.42;21.17;;;;;;;;;;5084684;28;20059;-71
2023/12/13 12:06:14;;;;;;;42.55;20.55;;;;;;;;;;5087397;28;20069;-71
2023/12/13 12:08:40;;;;;;;39.60;20.38;;;;;;;;;;5085136;28;20123;-71
2023/12/13 12:11:07;;;;;;;45.72;20.65;;;;;;;;;;5080417;28;20044;-71
2023/12/13 12:13:33;;;;;;;41.10;20.70;;;;;;;;;;5088718;28;20036;-71
2023/12/13 12:16:00;;;;;;;41.85;21.20;;;;;;;;;;5070264;28;20143;-71
2023/12/13 12:18:27;;;;;;;40.17;20.48;;;;;;;;;;5086509;28;20040;-71
2023/12/13 12:20:53;;;;;;;50.53;22.17;;;;;;;;;;5087798;28;20055;-71
2023/12/13 12:23:19;;;;;;;58.17;22.13;;;;;;;;;;5087644;28;20043;-71
2023/12/13 12:25:45;;;;;;;45.00;22.13;;;;;;;;;;5080575;28;20051;-71
2023/12/13 12:28:11;;;;;;;37.88;20.45;;;;;;;;;;5088103;28;20048;-71
2023/12/13 12:30:43;;;;;;;39.05;20.30;;;;;;;;;;5077897;28;20036;-70
2023/12/13 12:33:09;;;;;;;38.13;19.88;;;;;;;;;;5081082;28;20101;-69
2023/12/13 12:35:35;;;;;;;40.67;21.27;;;;;;;;;;5069048;28;20039;-69
2023/12/13 12:38:04;;;;;;;40.83;19.27;;;;;;;;;;5083606;28;20051;-69
2023/12/13 12:40:30;;;;;;;40.42;20.35;;;;;;;;;;5081728;28;20051;-66
2023/12/13 12:42:56;;;;;;;43.30;20.48;;;;;;;;;;5083502;28;20535;-67
2023/12/13 12:45:22;;;;;;;42.70;21.20;;;;;;;;;;5092099;28;20109;-66
2023/12/13 12:47:48;;;;;;;37.15;19.98;;;;;;;;;;5089374;28;20040;-68
2023/12/13 12:50:14;;;;;;;39.38;21.20;;;;;;;;;;5089674;28;20040;-71
2023/12/13 12:52:42;;;;;;;39.28;19.92;;;;;;;;;;5087524;28;20044;-70
2023/12/13 12:55:08;;;;;;;40.42;19.55;;;;;;;;;;5061498;28;20055;-71
2023/12/13 12:57:34;;;;;;;41.35;19.67;;;;;;;;;;5085987;28;20086;-69
2023/12/13 13:00:00;;;;;;;41.95;20.55;;;;;;;;;;5092008;28;20127;-68
2023/12/13 13:02:27;;;;;;;46.40;20.25;;;;;;;;;;5078782;28;20048;-69
2023/12/13 13:04:53;;;;;;;36.75;19.50;;;;;;;;;;5082176;28;20089;-70
2023/12/13 13:07:19;;;;;;;40.92;19.75;;;;;;;;;;5083794;28;20506;-69
2023/12/13 13:09:45;;;;;;;40.65;20.45;;;;;;;;;;5076670;28;20059;-66
2023/12/13 13:12:11;;;;;;;38.75;19.05;;;;;;;;;;5088786;28;20079;-70
2023/12/13 13:14:39;;;;;;;40.83;21.08;;;;;;;;;;5089864;28;20398;-69
2023/12/13 13:17:05;;;;;;;42.30;19.58;;;;;;;;;;5088135;28;20071;-69
2023/12/13 13:19:31;;;;;;;49.03;22.02;;;;;;;;;;5086416;28;20090;-70
2023/12/13 13:21:57;;;;;;;45.20;21.33;;;;;;;;;;5081324;28;20126;-70
2023/12/13 13:24:23;;;;;;;49.72;21.63;;;;;;;;;;5084899;28;20040;-69
2023/12/13 13:26:49;;;;;;;40.30;21.20;;;;;;;;;;5082852;28;20032;-71
2023/12/13 13:29:15;;;;;;;49.75;20.67;;;;;;;;;;5087543;28;20129;-69
2023/12/13 13:31:42;;;;;;;42.83;21.35;;;;;;;;;;5081566;28;20040;-69
2023/12/13 13:34:08;;;;;;;44.50;20.88;;;;;;;;;;5091771;28;20043;-69
2023/12/13 13:36:34;;;;;;;56.17;22.30;;;;;;;;;;5091610;28;20039;-69
2023/12/13 13:39:00;;;;;;;51.35;22.88;;;;;;;;;;5086402;28;20368;-71
2023/12/13 13:41:28;;;;;;;47.45;22.80;;;;;;;;;;5088661;28;20063;-70
2023/12/13 13:43:54;;;;;;;54.67;22.52;;;;;;;;;;5090918;28;20123;-70
2023/12/13 13:46:20;;;;;;;48.53;22.52;;;;;;;;;;5088419;28;20055;-69
2023/12/13 13:48:46;;;;;;;47.92;23.00;;;;;;;;;;5088120;28;20448;-70
2023/12/13 13:51:13;;;;;;;53.63;23.30;;;;;;;;;;5082811;28;20054;-70
2023/12/13 13:53:40;;;;;;;44.05;21.63;;;;;;;;;;5058907;28;20044;-68
2023/12/13 13:56:06;;;;;;;50.03;21.77;;;;;;;;;;5072537;28;20044;-70
2023/12/13 13:58:32;;;;;;;44.92;22.75;;;;;;;;;;5080241;28;20058;-69
2023/12/13 14:00:58;;;;;;;43.58;21.45;;;;;;;;;;5088831;28;20106;-69
2023/12/13 14:03:24;;;;;;;44.40;21.27;;;;;;;;;;5078353;28;20549;-70
2023/12/13 14:05:52;;;;;;;42.33;21.33;;;;;;;;;;5068411;28;20173;-68
2023/12/13 14:08:18;;;;;;;48.53;22.85;;;;;;;;;;5082607;28;20582;-68
2023/12/13 14:10:44;;;;;;;50.92;23.38;;;;;;;;;;5085911;28;20079;-69
2023/12/13 14:13:10;;;;;;;47.42;22.15;;;;;;;;;;5089393;28;20040;-69